sensor_id;sensor_type;location;lat;lon;timestamp;temperature;humidity
16532;DHT22;66872;63.142;14.482;2023-03-01T00:01:25;13.40;27.70
16532;DHT22;66872;63.142;14.482;2023-03-01T00:03:51;13.40;27.70
16532;DHT22;66872;63.142;14.482;2023-03-01T00:06:18;13.40;27.70
16532;DHT22;66872;63.142;14.482;2023-03-01T00:08:44;13.40;27.70
16532;DHT22;66872;63.142;14.482;2023-03-01T00:11:18;13.40;27.70
16532;DHT22;66872;63.142;14.482;2023-03-01T00:13:45;13.40;27.70
16532;DHT22;66872;63.142;14.482;2023-03-01T00:16:14;13.40;27.80
16532;DHT22;66872;63.142;14.482;2023-03-01T00:18:40;13.40;27.80
16532;DHT22;66872;63.142;14.482;2023-03-01T00:21:06;13.40;27.80
16532;DHT22;66872;63.142;14.482;2023-03-01T00:23:34;13.40;27.80
16532;DHT22;66872;63.142;14.482;2023-03-01T00:26:00;13.40;27.80
16532;DHT22;66872;63.142;14.482;2023-03-01T00:28:26;13.40;27.80
16532;DHT22;66872;63.142;14.482;2023-03-01T00:30:52;13.40;27.80
16532;DHT22;66872;63.142;14.482;2023-03-01T00:33:17;13.40;27.80
16532;DHT22;66872;63.142;14.482;2023-03-01T00:35:43;13.40;27.80
16532;DHT22;66872;63.142;14.482;2023-03-01T00:38:10;13.40;27.80
16532;DHT22;66872;63.142;14.482;2023-03-01T00:40:36;13.40;27.80
16532;DHT22;66872;63.142;14.482;2023-03-01T00:43:03;13.40;27.80
16532;DHT22;66872;63.142;14.482;2023-03-01T00:45:29;13.40;27.80
16532;DHT22;66872;63.142;14.482;2023-03-01T00:47:56;13.40;27.70
16532;DHT22;66872;63.142;14.482;2023-03-01T00:50:23;13.40;27.70
16532;DHT22;66872;63.142;14.482;2023-03-01T00:52:53;13.40;27.80
16532;DHT22;66872;63.142;14.482;2023-03-01T00:55:19;13.40;27.80
16532;DHT22;66872;63.142;14.482;2023-03-01T00:57:44;13.40;27.80
16532;DHT22;66872;63.142;14.482;2023-03-01T01:00:10;13.40;27.80
16532;DHT22;66872;63.142;14.482;2023-03-01T01:02:37;13.40;27.80
16532;DHT22;66872;63.142;14.482;2023-03-01T01:05:03;13.50;27.80
16532;DHT22;66872;63.142;14.482;2023-03-01T01:07:29;13.40;27.80
16532;DHT22;66872;63.142;14.482;2023-03-01T01:09:55;13.40;27.80
16532;DHT22;66872;63.142;14.482;2023-03-01T01:12:21;13.50;27.80
16532;DHT22;66872;63.142;14.482;2023-03-01T01:14:46;13.50;27.80
16532;DHT22;66872;63.142;14.482;2023-03-01T01:17:12;13.40;27.80
16532;DHT22;66872;63.142;14.482;2023-03-01T01:19:38;13.50;27.80
16532;DHT22;66872;63.142;14.482;2023-03-01T01:22:04;13.40;27.80
16532;DHT22;66872;63.142;14.482;2023-03-01T01:24:29;13.50;27.80
16532;DHT22;66872;63.142;14.482;2023-03-01T01:26:55;13.50;27.90
16532;DHT22;66872;63.142;14.482;2023-03-01T01:29:21;13.40;27.80
16532;DHT22;66872;63.142;14.482;2023-03-01T01:31:47;13.50;27.90
16532;DHT22;66872;63.142;14.482;2023-03-01T01:34:15;13.40;27.80
16532;DHT22;66872;63.142;14.482;2023-03-01T01:36:42;13.40;27.80
16532;DHT22;66872;63.142;14.482;2023-03-01T01:39:07;13.50;27.90
16532;DHT22;66872;63.142;14.482;2023-03-01T01:41:40;13.40;27.80
16532;DHT22;66872;63.142;14.482;2023-03-01T01:44:14;13.50;27.90
16532;DHT22;66872;63.142;14.482;2023-03-01T01:52:13;13.40;27.80
16532;DHT22;66872;63.142;14.482;2023-03-01T01:54:55;13.40;27.90
16532;DHT22;66872;63.142;14.482;2023-03-01T01:57:33;13.40;27.90
16532;DHT22;66872;63.142;14.482;2023-03-01T02:00:04;13.50;28.00
16532;DHT22;66872;63.142;14.482;2023-03-01T02:02:31;13.40;27.90
16532;DHT22;66872;63.142;14.482;2023-03-01T02:05:39;13.40;27.90
16532;DHT22;66872;63.142;14.482;2023-03-01T02:08:06;13.40;27.90
16532;DHT22;66872;63.142;14.482;2023-03-01T02:10:34;13.50;28.00
16532;DHT22;66872;63.142;14.482;2023-03-01T02:13:02;13.50;28.00
16532;DHT22;66872;63.142;14.482;2023-03-01T02:15:32;13.40;27.90
16532;DHT22;66872;63.142;14.482;2023-03-01T02:17:58;13.50;27.90
16532;DHT22;66872;63.142;14.482;2023-03-01T02:20:48;13.50;27.90
16532;DHT22;66872;63.142;14.482;2023-03-01T02:23:15;13.50;27.90
16532;DHT22;66872;63.142;14.482;2023-03-01T02:26:09;13.50;27.90
16532;DHT22;66872;63.142;14.482;2023-03-01T02:28:40;13.40;27.90
16532;DHT22;66872;63.142;14.482;2023-03-01T02:31:09;13.40;27.90
16532;DHT22;66872;63.142;14.482;2023-03-01T02:33:55;13.50;28.00
16532;DHT22;66872;63.142;14.482;2023-03-01T02:36:28;13.40;27.90
16532;DHT22;66872;63.142;14.482;2023-03-01T02:38:57;13.50;28.00
16532;DHT22;66872;63.142;14.482;2023-03-01T02:41:25;13.50;27.90
16532;DHT22;66872;63.142;14.482;2023-03-01T02:43:51;13.50;27.90
16532;DHT22;66872;63.142;14.482;2023-03-01T02:46:20;13.50;27.90
16532;DHT22;66872;63.142;14.482;2023-03-01T02:48:50;13.50;28.00
16532;DHT22;66872;63.142;14.482;2023-03-01T02:54:10;13.50;28.00
16532;DHT22;66872;63.142;14.482;2023-03-01T02:56:37;13.50;27.90
16532;DHT22;66872;63.142;14.482;2023-03-01T02:59:03;13.50;27.90
16532;DHT22;66872;63.142;14.482;2023-03-01T03:01:29;13.50;27.90
16532;DHT22;66872;63.142;14.482;2023-03-01T03:04:14;13.50;27.90
16532;DHT22;66872;63.142;14.482;2023-03-01T03:06:47;13.50;27.90
16532;DHT22;66872;63.142;14.482;2023-03-01T03:09:14;13.50;27.90
16532;DHT22;66872;63.142;14.482;2023-03-01T03:11:41;13.50;27.90
16532;DHT22;66872;63.142;14.482;2023-03-01T03:14:09;13.50;27.90
16532;DHT22;66872;63.142;14.482;2023-03-01T03:16:43;13.50;27.90
16532;DHT22;66872;63.142;14.482;2023-03-01T03:19:10;13.50;27.90
16532;DHT22;66872;63.142;14.482;2023-03-01T03:21:36;13.50;28.00
16532;DHT22;66872;63.142;14.482;2023-03-01T03:24:03;13.50;28.00
16532;DHT22;66872;63.142;14.482;2023-03-01T03:26:29;13.50;28.00
16532;DHT22;66872;63.142;14.482;2023-03-01T03:28:54;13.50;28.00
16532;DHT22;66872;63.142;14.482;2023-03-01T03:31:20;13.50;28.00
16532;DHT22;66872;63.142;14.482;2023-03-01T03:33:46;13.50;28.00
16532;DHT22;66872;63.142;14.482;2023-03-01T03:36:17;13.50;28.00
16532;DHT22;66872;63.142;14.482;2023-03-01T03:38:44;13.50;28.00
16532;DHT22;66872;63.142;14.482;2023-03-01T03:41:11;13.50;28.00
16532;DHT22;66872;63.142;14.482;2023-03-01T03:43:39;13.50;28.00
16532;DHT22;66872;63.142;14.482;2023-03-01T03:46:06;13.50;28.00
16532;DHT22;66872;63.142;14.482;2023-03-01T03:48:40;13.50;28.00
16532;DHT22;66872;63.142;14.482;2023-03-01T03:51:09;13.50;28.10
16532;DHT22;66872;63.142;14.482;2023-03-01T03:53:35;13.50;28.10
16532;DHT22;66872;63.142;14.482;2023-03-01T03:56:01;13.50;28.00
16532;DHT22;66872;63.142;14.482;2023-03-01T03:58:26;13.50;28.00
16532;DHT22;66872;63.142;14.482;2023-03-01T04:00:55;13.50;28.00
16532;DHT22;66872;63.142;14.482;2023-03-01T04:03:22;13.50;28.10
16532;DHT22;66872;63.142;14.482;2023-03-01T04:05:49;13.50;28.00
16532;DHT22;66872;63.142;14.482;2023-03-01T04:08:17;13.50;28.10
16532;DHT22;66872;63.142;14.482;2023-03-01T04:10:46;13.50;28.00
16532;DHT22;66872;63.142;14.482;2023-03-01T04:13:18;13.50;28.00
16532;DHT22;66872;63.142;14.482;2023-03-01T04:15:49;13.50;28.10
16532;DHT22;66872;63.142;14.482;2023-03-01T04:18:16;13.50;28.10
16532;DHT22;66872;63.142;14.482;2023-03-01T04:20:42;13.50;28.10
16532;DHT22;66872;63.142;14.482;2023-03-01T04:23:15;13.50;28.10
16532;DHT22;66872;63.142;14.482;2023-03-01T04:25:57;13.50;28.10
16532;DHT22;66872;63.142;14.482;2023-03-01T04:28:38;13.50;28.10
16532;DHT22;66872;63.142;14.482;2023-03-01T04:31:23;13.50;28.10
16532;DHT22;66872;63.142;14.482;2023-03-01T04:33:51;13.50;28.10
16532;DHT22;66872;63.142;14.482;2023-03-01T04:36:18;13.50;28.10
16532;DHT22;66872;63.142;14.482;2023-03-01T04:38:45;13.50;28.10
16532;DHT22;66872;63.142;14.482;2023-03-01T04:41:18;13.50;28.10
16532;DHT22;66872;63.142;14.482;2023-03-01T04:43:44;13.50;28.10
16532;DHT22;66872;63.142;14.482;2023-03-01T04:46:13;13.50;28.10
16532;DHT22;66872;63.142;14.482;2023-03-01T04:48:40;13.50;28.20
16532;DHT22;66872;63.142;14.482;2023-03-01T04:51:07;13.50;28.10
16532;DHT22;66872;63.142;14.482;2023-03-01T04:53:34;13.50;28.20
16532;DHT22;66872;63.142;14.482;2023-03-01T04:56:03;13.50;28.10
16532;DHT22;66872;63.142;14.482;2023-03-01T04:58:29;13.50;28.10
16532;DHT22;66872;63.142;14.482;2023-03-01T05:00:55;13.50;28.10
16532;DHT22;66872;63.142;14.482;2023-03-01T05:03:22;13.50;28.30
16532;DHT22;66872;63.142;14.482;2023-03-01T05:05:49;13.50;28.10
16532;DHT22;66872;63.142;14.482;2023-03-01T05:08:16;13.50;28.10
16532;DHT22;66872;63.142;14.482;2023-03-01T05:10:50;13.50;28.20
16532;DHT22;66872;63.142;14.482;2023-03-01T05:13:17;13.60;28.20
16532;DHT22;66872;63.142;14.482;2023-03-01T05:15:49;13.50;28.10
16532;DHT22;66872;63.142;14.482;2023-03-01T05:18:18;13.50;28.10
16532;DHT22;66872;63.142;14.482;2023-03-01T05:20:44;13.60;28.20
16532;DHT22;66872;63.142;14.482;2023-03-01T05:23:10;13.60;28.20
16532;DHT22;66872;63.142;14.482;2023-03-01T05:25:36;13.60;28.20
16532;DHT22;66872;63.142;14.482;2023-03-01T05:28:07;13.60;28.70
16532;DHT22;66872;63.142;14.482;2023-03-01T05:30:35;13.50;28.10
16532;DHT22;66872;63.142;14.482;2023-03-01T05:33:02;13.50;28.10
16532;DHT22;66872;63.142;14.482;2023-03-01T05:35:28;13.50;28.10
16532;DHT22;66872;63.142;14.482;2023-03-01T05:37:54;13.50;28.10
16532;DHT22;66872;63.142;14.482;2023-03-01T05:40:22;13.50;28.10
16532;DHT22;66872;63.142;14.482;2023-03-01T05:42:52;13.50;28.10
16532;DHT22;66872;63.142;14.482;2023-03-01T05:45:19;13.50;28.10
16532;DHT22;66872;63.142;14.482;2023-03-01T05:47:46;13.50;28.10
16532;DHT22;66872;63.142;14.482;2023-03-01T05:50:25;13.50;28.10
16532;DHT22;66872;63.142;14.482;2023-03-01T05:52:56;13.60;28.10
16532;DHT22;66872;63.142;14.482;2023-03-01T05:55:22;13.60;28.10
16532;DHT22;66872;63.142;14.482;2023-03-01T05:57:48;13.60;28.10
16532;DHT22;66872;63.142;14.482;2023-03-01T06:00:15;13.60;28.10
16532;DHT22;66872;63.142;14.482;2023-03-01T06:02:41;13.60;28.10
16532;DHT22;66872;63.142;14.482;2023-03-01T06:05:09;13.60;28.10
16532;DHT22;66872;63.142;14.482;2023-03-01T06:07:35;13.60;28.10
16532;DHT22;66872;63.142;14.482;2023-03-01T06:10:02;13.60;28.10
16532;DHT22;66872;63.142;14.482;2023-03-01T06:12:31;13.60;28.10
16532;DHT22;66872;63.142;14.482;2023-03-01T06:14:57;13.60;28.10
16532;DHT22;66872;63.142;14.482;2023-03-01T06:17:23;13.60;28.10
16532;DHT22;66872;63.142;14.482;2023-03-01T06:19:48;13.60;28.10
16532;DHT22;66872;63.142;14.482;2023-03-01T06:22:14;13.60;28.10
16532;DHT22;66872;63.142;14.482;2023-03-01T06:24:39;13.60;28.10
16532;DHT22;66872;63.142;14.482;2023-03-01T06:27:05;13.60;28.10
16532;DHT22;66872;63.142;14.482;2023-03-01T06:29:31;13.60;28.10
16532;DHT22;66872;63.142;14.482;2023-03-01T06:31:57;13.60;28.10
16532;DHT22;66872;63.142;14.482;2023-03-01T06:34:22;13.60;28.10
16532;DHT22;66872;63.142;14.482;2023-03-01T06:36:48;13.60;28.10
16532;DHT22;66872;63.142;14.482;2023-03-01T06:39:14;13.60;28.10
16532;DHT22;66872;63.142;14.482;2023-03-01T06:41:39;13.60;28.10
16532;DHT22;66872;63.142;14.482;2023-03-01T06:44:05;13.60;28.10
16532;DHT22;66872;63.142;14.482;2023-03-01T06:46:31;13.60;28.10
16532;DHT22;66872;63.142;14.482;2023-03-01T06:48:56;13.60;28.10
16532;DHT22;66872;63.142;14.482;2023-03-01T06:51:22;13.60;28.10
16532;DHT22;66872;63.142;14.482;2023-03-01T06:53:47;13.60;28.10
16532;DHT22;66872;63.142;14.482;2023-03-01T06:56:13;13.60;28.10
16532;DHT22;66872;63.142;14.482;2023-03-01T06:58:39;13.60;28.10
16532;DHT22;66872;63.142;14.482;2023-03-01T07:01:07;13.60;28.10
16532;DHT22;66872;63.142;14.482;2023-03-01T07:03:32;13.60;28.10
16532;DHT22;66872;63.142;14.482;2023-03-01T07:05:58;13.70;28.10
16532;DHT22;66872;63.142;14.482;2023-03-01T07:08:24;13.60;28.00
16532;DHT22;66872;63.142;14.482;2023-03-01T07:10:55;13.70;28.10
16532;DHT22;66872;63.142;14.482;2023-03-01T07:13:21;13.60;28.00
16532;DHT22;66872;63.142;14.482;2023-03-01T07:15:47;13.70;28.10
16532;DHT22;66872;63.142;14.482;2023-03-01T07:18:12;13.70;28.10
16532;DHT22;66872;63.142;14.482;2023-03-01T07:20:38;13.70;28.10
16532;DHT22;66872;63.142;14.482;2023-03-01T07:23:05;13.70;28.00
16532;DHT22;66872;63.142;14.482;2023-03-01T07:25:31;13.70;28.00
16532;DHT22;66872;63.142;14.482;2023-03-01T07:27:58;13.70;28.00
16532;DHT22;66872;63.142;14.482;2023-03-01T07:30:24;13.70;28.00
16532;DHT22;66872;63.142;14.482;2023-03-01T07:32:53;13.80;28.00
16532;DHT22;66872;63.142;14.482;2023-03-01T07:35:19;13.80;28.00
16532;DHT22;66872;63.142;14.482;2023-03-01T07:37:44;13.80;28.00
16532;DHT22;66872;63.142;14.482;2023-03-01T07:40:10;13.80;28.00
16532;DHT22;66872;63.142;14.482;2023-03-01T07:42:36;13.80;27.90
16532;DHT22;66872;63.142;14.482;2023-03-01T07:45:03;13.80;27.90
16532;DHT22;66872;63.142;14.482;2023-03-01T07:47:29;13.80;27.80
16532;DHT22;66872;63.142;14.482;2023-03-01T07:49:55;13.80;27.80
16532;DHT22;66872;63.142;14.482;2023-03-01T07:52:20;13.90;27.80
16532;DHT22;66872;63.142;14.482;2023-03-01T07:54:46;13.90;27.80
16532;DHT22;66872;63.142;14.482;2023-03-01T07:57:12;13.90;27.80
16532;DHT22;66872;63.142;14.482;2023-03-01T07:59:37;13.90;27.80
16532;DHT22;66872;63.142;14.482;2023-03-01T08:02:03;13.90;27.80
16532;DHT22;66872;63.142;14.482;2023-03-01T08:04:29;13.90;27.80
16532;DHT22;66872;63.142;14.482;2023-03-01T08:06:55;13.90;27.70
16532;DHT22;66872;63.142;14.482;2023-03-01T08:09:21;14.00;27.80
16532;DHT22;66872;63.142;14.482;2023-03-01T08:11:47;14.00;27.70
16532;DHT22;66872;63.142;14.482;2023-03-01T08:14:14;14.00;27.70
16532;DHT22;66872;63.142;14.482;2023-03-01T08:16:39;14.00;27.70
16532;DHT22;66872;63.142;14.482;2023-03-01T08:19:11;14.00;27.70
16532;DHT22;66872;63.142;14.482;2023-03-01T08:21:37;14.00;27.70
16532;DHT22;66872;63.142;14.482;2023-03-01T08:24:06;14.00;27.60
16532;DHT22;66872;63.142;14.482;2023-03-01T08:26:32;14.00;27.60
16532;DHT22;66872;63.142;14.482;2023-03-01T08:29:00;14.00;27.60
16532;DHT22;66872;63.142;14.482;2023-03-01T08:33:59;14.10;27.60
16532;DHT22;66872;63.142;14.482;2023-03-01T08:36:27;14.10;27.60
16532;DHT22;66872;63.142;14.482;2023-03-01T08:38:53;14.10;27.50
16532;DHT22;66872;63.142;14.482;2023-03-01T08:41:19;14.20;27.60
16532;DHT22;66872;63.142;14.482;2023-03-01T08:43:45;14.20;27.50
16532;DHT22;66872;63.142;14.482;2023-03-01T08:46:12;14.20;27.50
16532;DHT22;66872;63.142;14.482;2023-03-01T08:48:38;14.20;27.50
16532;DHT22;66872;63.142;14.482;2023-03-01T08:51:12;14.20;27.40
16532;DHT22;66872;63.142;14.482;2023-03-01T08:53:39;14.30;27.40
16532;DHT22;66872;63.142;14.482;2023-03-01T08:56:05;14.30;27.40
16532;DHT22;66872;63.142;14.482;2023-03-01T08:58:31;14.30;27.30
16532;DHT22;66872;63.142;14.482;2023-03-01T09:00:56;14.30;27.30
16532;DHT22;66872;63.142;14.482;2023-03-01T09:03:23;14.30;27.30
16532;DHT22;66872;63.142;14.482;2023-03-01T09:05:49;14.30;27.20
16532;DHT22;66872;63.142;14.482;2023-03-01T09:08:19;14.40;27.30
16532;DHT22;66872;63.142;14.482;2023-03-01T09:10:45;14.40;27.20
16532;DHT22;66872;63.142;14.482;2023-03-01T09:13:12;14.40;27.20
16532;DHT22;66872;63.142;14.482;2023-03-01T09:15:38;14.40;27.20
16532;DHT22;66872;63.142;14.482;2023-03-01T09:18:05;14.50;27.20
16532;DHT22;66872;63.142;14.482;2023-03-01T09:20:32;14.50;27.20
16532;DHT22;66872;63.142;14.482;2023-03-01T09:22:58;14.50;27.10
16532;DHT22;66872;63.142;14.482;2023-03-01T09:25:24;14.60;27.10
16532;DHT22;66872;63.142;14.482;2023-03-01T09:27:54;14.60;27.00
16532;DHT22;66872;63.142;14.482;2023-03-01T09:30:22;14.70;26.90
16532;DHT22;66872;63.142;14.482;2023-03-01T09:32:48;14.70;26.90
16532;DHT22;66872;63.142;14.482;2023-03-01T09:35:13;14.70;26.80
16532;DHT22;66872;63.142;14.482;2023-03-01T09:37:39;14.70;26.80
16532;DHT22;66872;63.142;14.482;2023-03-01T09:40:17;14.80;26.80
16532;DHT22;66872;63.142;14.482;2023-03-01T09:42:53;14.80;26.80
16532;DHT22;66872;63.142;14.482;2023-03-01T09:45:33;14.80;26.70
16532;DHT22;66872;63.142;14.482;2023-03-01T09:48:00;14.80;26.70
16532;DHT22;66872;63.142;14.482;2023-03-01T09:50:33;14.80;26.60
16532;DHT22;66872;63.142;14.482;2023-03-01T09:53:06;14.90;26.70
16532;DHT22;66872;63.142;14.482;2023-03-01T09:55:43;14.90;26.50
16532;DHT22;66872;63.142;14.482;2023-03-01T09:58:36;15.00;26.50
16532;DHT22;66872;63.142;14.482;2023-03-01T10:01:28;15.00;26.40
16532;DHT22;66872;63.142;14.482;2023-03-01T10:06:26;15.10;26.20
16532;DHT22;66872;63.142;14.482;2023-03-01T10:09:00;15.20;26.20
16532;DHT22;66872;63.142;14.482;2023-03-01T10:11:30;15.20;26.00
16532;DHT22;66872;63.142;14.482;2023-03-01T10:14:27;15.30;26.00
16532;DHT22;66872;63.142;14.482;2023-03-01T10:16:58;15.30;25.80
16532;DHT22;66872;63.142;14.482;2023-03-01T10:19:39;15.30;25.80
16532;DHT22;66872;63.142;14.482;2023-03-01T10:24:49;15.40;25.80
16532;DHT22;66872;63.142;14.482;2023-03-01T10:27:17;15.40;25.80
16532;DHT22;66872;63.142;14.482;2023-03-01T10:29:58;15.40;25.80
16532;DHT22;66872;63.142;14.482;2023-03-01T10:32:27;15.40;25.70
16532;DHT22;66872;63.142;14.482;2023-03-01T10:34:53;15.40;25.70
16532;DHT22;66872;63.142;14.482;2023-03-01T10:37:20;15.40;25.70
16532;DHT22;66872;63.142;14.482;2023-03-01T10:40:08;15.50;25.70
16532;DHT22;66872;63.142;14.482;2023-03-01T10:42:38;15.50;25.70
16532;DHT22;66872;63.142;14.482;2023-03-01T10:45:25;15.50;25.60
16532;DHT22;66872;63.142;14.482;2023-03-01T10:48:15;15.50;25.60
16532;DHT22;66872;63.142;14.482;2023-03-01T10:50:43;15.50;25.60
16532;DHT22;66872;63.142;14.482;2023-03-01T10:53:22;15.40;25.60
16532;DHT22;66872;63.142;14.482;2023-03-01T10:55:59;15.50;25.70
16532;DHT22;66872;63.142;14.482;2023-03-01T10:58:25;15.40;25.60
16532;DHT22;66872;63.142;14.482;2023-03-01T11:06:03;15.40;25.70
16532;DHT22;66872;63.142;14.482;2023-03-01T11:16:34;15.40;25.70
16532;DHT22;66872;63.142;14.482;2023-03-01T11:21:57;15.40;25.60
16532;DHT22;66872;63.142;14.482;2023-03-01T11:27:31;15.40;25.60
16532;DHT22;66872;63.142;14.482;2023-03-01T11:30:26;15.40;25.60
16532;DHT22;66872;63.142;14.482;2023-03-01T11:32:56;15.40;25.60
16532;DHT22;66872;63.142;14.482;2023-03-01T11:35:30;15.40;25.60
16532;DHT22;66872;63.142;14.482;2023-03-01T11:56:43;15.40;25.60
16532;DHT22;66872;63.142;14.482;2023-03-01T12:12:35;15.40;25.70
16532;DHT22;66872;63.142;14.482;2023-03-01T12:21:11;15.40;25.70
16532;DHT22;66872;63.142;14.482;2023-03-01T12:23:57;15.40;25.70
16532;DHT22;66872;63.142;14.482;2023-03-01T12:26:39;15.40;25.70
16532;DHT22;66872;63.142;14.482;2023-03-01T12:29:31;15.40;25.70
16532;DHT22;66872;63.142;14.482;2023-03-01T12:35:10;15.40;25.70
16532;DHT22;66872;63.142;14.482;2023-03-01T12:38:21;15.40;25.70
16532;DHT22;66872;63.142;14.482;2023-03-01T12:43:33;15.40;25.70
16532;DHT22;66872;63.142;14.482;2023-03-01T12:46:14;15.40;25.70
16532;DHT22;66872;63.142;14.482;2023-03-01T12:48:56;15.40;25.70
16532;DHT22;66872;63.142;14.482;2023-03-01T12:51:31;15.40;25.70
16532;DHT22;66872;63.142;14.482;2023-03-01T12:53:59;15.40;25.60
16532;DHT22;66872;63.142;14.482;2023-03-01T12:56:29;15.40;25.70
16532;DHT22;66872;63.142;14.482;2023-03-01T12:59:17;15.40;25.70
16532;DHT22;66872;63.142;14.482;2023-03-01T13:01:59;15.40;25.70
16532;DHT22;66872;63.142;14.482;2023-03-01T13:04:49;15.40;25.70
16532;DHT22;66872;63.142;14.482;2023-03-01T13:07:39;15.40;25.70
16532;DHT22;66872;63.142;14.482;2023-03-01T13:10:33;15.40;25.80
16532;DHT22;66872;63.142;14.482;2023-03-01T13:13:11;15.40;25.80
16532;DHT22;66872;63.142;14.482;2023-03-01T13:15:38;15.40;25.80
16532;DHT22;66872;63.142;14.482;2023-03-01T13:20:48;15.40;25.80
16532;DHT22;66872;63.142;14.482;2023-03-01T13:23:29;15.40;25.80
16532;DHT22;66872;63.142;14.482;2023-03-01T13:26:03;15.40;25.80
16532;DHT22;66872;63.142;14.482;2023-03-01T13:34:04;15.40;25.80
16532;DHT22;66872;63.142;14.482;2023-03-01T13:39:26;15.40;25.80
16532;DHT22;66872;63.142;14.482;2023-03-01T13:41:54;15.40;25.80
16532;DHT22;66872;63.142;14.482;2023-03-01T13:46:47;15.40;25.80
16532;DHT22;66872;63.142;14.482;2023-03-01T13:49:16;15.40;25.80
16532;DHT22;66872;63.142;14.482;2023-03-01T13:51:47;15.40;25.80
16532;DHT22;66872;63.142;14.482;2023-03-01T13:54:15;15.40;25.80
16532;DHT22;66872;63.142;14.482;2023-03-01T13:56:42;15.40;25.80
16532;DHT22;66872;63.142;14.482;2023-03-01T13:59:20;15.40;25.80
16532;DHT22;66872;63.142;14.482;2023-03-01T14:01:59;15.40;25.80
16532;DHT22;66872;63.142;14.482;2023-03-01T14:04:28;15.50;25.90
16532;DHT22;66872;63.142;14.482;2023-03-01T14:07:20;15.50;25.90
16532;DHT22;66872;63.142;14.482;2023-03-01T14:09:53;15.50;25.90
16532;DHT22;66872;63.142;14.482;2023-03-01T14:17:43;15.50;25.90
16532;DHT22;66872;63.142;14.482;2023-03-01T14:20:17;15.50;25.90
16532;DHT22;66872;63.142;14.482;2023-03-01T14:22:44;15.40;25.90
16532;DHT22;66872;63.142;14.482;2023-03-01T14:25:21;15.50;25.90
16532;DHT22;66872;63.142;14.482;2023-03-01T14:30:50;15.50;26.00
16532;DHT22;66872;63.142;14.482;2023-03-01T14:33:26;15.50;26.00
16532;DHT22;66872;63.142;14.482;2023-03-01T14:38:33;15.40;26.00
16532;DHT22;66872;63.142;14.482;2023-03-01T14:41:06;15.40;26.00
16532;DHT22;66872;63.142;14.482;2023-03-01T14:43:33;15.40;26.00
16532;DHT22;66872;63.142;14.482;2023-03-01T14:46:00;15.40;26.00
16532;DHT22;66872;63.142;14.482;2023-03-01T14:48:28;15.40;26.50
16532;DHT22;66872;63.142;14.482;2023-03-01T14:50:55;15.40;26.10
16532;DHT22;66872;63.142;14.482;2023-03-01T14:53:25;15.40;26.10
16532;DHT22;66872;63.142;14.482;2023-03-01T14:55:54;15.40;26.10
16532;DHT22;66872;63.142;14.482;2023-03-01T14:58:22;15.40;26.10
16532;DHT22;66872;63.142;14.482;2023-03-01T15:03:36;15.40;26.20
16532;DHT22;66872;63.142;14.482;2023-03-01T15:06:05;15.30;26.10
16532;DHT22;66872;63.142;14.482;2023-03-01T15:08:31;15.30;26.20
16532;DHT22;66872;63.142;14.482;2023-03-01T15:13:50;15.30;26.30
16532;DHT22;66872;63.142;14.482;2023-03-01T15:16:26;15.30;26.30
16532;DHT22;66872;63.142;14.482;2023-03-01T15:21:25;15.20;26.30
16532;DHT22;66872;63.142;14.482;2023-03-01T15:24:08;15.20;26.40
16532;DHT22;66872;63.142;14.482;2023-03-01T15:26:53;15.20;26.40
16532;DHT22;66872;63.142;14.482;2023-03-01T15:29:29;15.10;26.50
16532;DHT22;66872;63.142;14.482;2023-03-01T15:34:49;15.10;26.60
16532;DHT22;66872;63.142;14.482;2023-03-01T15:37:46;15.10;26.70
16532;DHT22;66872;63.142;14.482;2023-03-01T15:40:22;15.00;26.70
16532;DHT22;66872;63.142;14.482;2023-03-01T15:42:50;15.00;26.70
16532;DHT22;66872;63.142;14.482;2023-03-01T15:47:51;14.90;26.80
16532;DHT22;66872;63.142;14.482;2023-03-01T15:52:52;14.90;26.90
16532;DHT22;66872;63.142;14.482;2023-03-01T15:55:21;14.80;26.90
16532;DHT22;66872;63.142;14.482;2023-03-01T15:57:48;14.80;26.90
16532;DHT22;66872;63.142;14.482;2023-03-01T16:00:14;14.80;27.00
16532;DHT22;66872;63.142;14.482;2023-03-01T16:02:44;14.80;27.00
16532;DHT22;66872;63.142;14.482;2023-03-01T16:05:37;14.80;27.10
16532;DHT22;66872;63.142;14.482;2023-03-01T16:08:04;14.70;27.10
16532;DHT22;66872;63.142;14.482;2023-03-01T16:10:31;14.70;27.10
16532;DHT22;66872;63.142;14.482;2023-03-01T16:12:58;14.70;27.10
16532;DHT22;66872;63.142;14.482;2023-03-01T16:15:32;14.70;27.20
16532;DHT22;66872;63.142;14.482;2023-03-01T16:18:00;14.70;27.20
16532;DHT22;66872;63.142;14.482;2023-03-01T16:20:27;14.70;27.20
16532;DHT22;66872;63.142;14.482;2023-03-01T16:22:53;14.70;27.30
16532;DHT22;66872;63.142;14.482;2023-03-01T16:25:20;14.70;27.30
16532;DHT22;66872;63.142;14.482;2023-03-01T16:27:48;14.70;27.40
16532;DHT22;66872;63.142;14.482;2023-03-01T16:30:17;14.60;27.30
16532;DHT22;66872;63.142;14.482;2023-03-01T16:32:44;14.60;27.40
16532;DHT22;66872;63.142;14.482;2023-03-01T16:35:13;14.60;27.40
16532;DHT22;66872;63.142;14.482;2023-03-01T16:37:40;14.60;27.90
16532;DHT22;66872;63.142;14.482;2023-03-01T16:40:15;14.60;27.50
16532;DHT22;66872;63.142;14.482;2023-03-01T16:42:41;14.50;27.40
16532;DHT22;66872;63.142;14.482;2023-03-01T16:45:08;14.50;27.50
16532;DHT22;66872;63.142;14.482;2023-03-01T16:47:34;14.60;27.60
16532;DHT22;66872;63.142;14.482;2023-03-01T16:50:00;14.50;27.50
16532;DHT22;66872;63.142;14.482;2023-03-01T16:52:26;14.50;27.60
16532;DHT22;66872;63.142;14.482;2023-03-01T16:54:51;14.50;27.60
16532;DHT22;66872;63.142;14.482;2023-03-01T16:57:17;14.50;27.60
16532;DHT22;66872;63.142;14.482;2023-03-01T16:59:43;14.50;27.70
16532;DHT22;66872;63.142;14.482;2023-03-01T17:02:11;14.50;27.70
16532;DHT22;66872;63.142;14.482;2023-03-01T17:04:38;14.50;27.70
16532;DHT22;66872;63.142;14.482;2023-03-01T17:07:04;14.40;27.70
16532;DHT22;66872;63.142;14.482;2023-03-01T17:09:30;14.40;27.70
16532;DHT22;66872;63.142;14.482;2023-03-01T17:11:56;14.40;27.70
16532;DHT22;66872;63.142;14.482;2023-03-01T17:14:23;14.40;27.80
16532;DHT22;66872;63.142;14.482;2023-03-01T17:16:48;14.40;27.80
16532;DHT22;66872;63.142;14.482;2023-03-01T17:19:14;14.40;27.80
16532;DHT22;66872;63.142;14.482;2023-03-01T17:21:44;14.40;27.80
16532;DHT22;66872;63.142;14.482;2023-03-01T17:24:10;14.40;27.80
16532;DHT22;66872;63.142;14.482;2023-03-01T17:26:36;14.40;27.90
16532;DHT22;66872;63.142;14.482;2023-03-01T17:29:02;14.40;27.90
16532;DHT22;66872;63.142;14.482;2023-03-01T17:31:30;14.30;27.90